createdAt,value
2018-03-24T00:01:20.253Z,99456.16
2018-03-24T00:03:46.981Z,99462.17
2018-03-24T00:06:13.724Z,99456.62
2018-03-24T00:08:41.317Z,99454.76
2018-03-24T00:11:08.090Z,99442.19
2018-03-24T00:13:34.788Z,99442.68
2018-03-24T00:16:01.530Z,99443.52
2018-03-24T00:18:28.849Z,99440.88
2018-03-24T00:20:55.642Z,99433.65
2018-03-24T00:23:22.376Z,99443.73
2018-03-24T00:25:49.135Z,99439.68
2018-03-24T00:28:17.251Z,99435.92
2018-03-24T00:30:43.957Z,99441.50
2018-03-24T00:33:11.418Z,99441.45
2018-03-24T00:35:38.164Z,99442.42
2018-03-24T00:38:05.587Z,99438.92
2018-03-24T00:40:32.346Z,99436.30
2018-03-24T00:43:00.396Z,99432.37
2018-03-24T00:45:28.051Z,99430.77
2018-03-24T00:47:55.830Z,99434.22
2018-03-24T00:50:23.147Z,99432.72
2018-03-24T00:52:49.900Z,99431.33
2018-03-24T00:55:16.673Z,99428.36
2018-03-24T00:57:46.072Z,99431.72
2018-03-24T01:00:16.345Z,99432.42
2018-03-24T01:02:43.194Z,99432.27
2018-03-24T01:05:09.912Z,99428.92
2018-03-24T01:07:36.689Z,99432.72
2018-03-24T01:10:03.579Z,99427.80
2018-03-24T01:12:31.316Z,99432.88
2018-03-24T01:14:58.848Z,99430.78
2018-03-24T01:17:25.598Z,99432.27
2018-03-24T01:19:52.377Z,99434.77
2018-03-24T01:22:19.154Z,99432.13
2018-03-24T01:24:45.959Z,99430.69
2018-03-24T01:27:12.896Z,99429.63
2018-03-24T01:29:39.628Z,99425.31
2018-03-24T01:32:06.340Z,99424.34
2018-03-24T01:34:33.097Z,99425.34
2018-03-24T01:37:00.536Z,99427.63
2018-03-24T01:39:27.286Z,99426.18
2018-03-24T01:41:54.096Z,99429.37
2018-03-24T01:44:20.839Z,99430.05
2018-03-24T01:46:47.597Z,99432.16
2018-03-24T01:49:15.058Z,99437.67
2018-03-24T01:51:41.804Z,99439.41
2018-03-24T01:54:08.560Z,99439.26
2018-03-24T01:56:35.258Z,99439.77
2018-03-24T01:59:01.973Z,99433.23
2018-03-24T02:01:28.744Z,99435.71
2018-03-24T02:03:55.452Z,99438.05
2018-03-24T02:06:22.823Z,99433.12
2018-03-24T02:08:49.615Z,99435.91
2018-03-24T02:11:16.374Z,99435.35
2018-03-24T02:13:43.910Z,99430.86
2018-03-24T02:16:11.542Z,99434.27
2018-03-24T02:18:39.035Z,99431.59
2018-03-24T02:21:06.548Z,99426.59
2018-03-24T02:23:33.902Z,99427.78
2018-03-24T02:26:00.628Z,99426.50
2018-03-24T02:28:27.331Z,99421.17
2018-03-24T02:30:54.102Z,99427.70
2018-03-24T02:33:20.942Z,99428.54
2018-03-24T02:35:48.425Z,99430.52
2018-03-24T02:38:15.874Z,99429.06
2018-03-24T02:40:42.586Z,99429.85
2018-03-24T02:43:10.667Z,99423.53
2018-03-24T02:45:39.595Z,99420.67
2018-03-24T02:48:06.369Z,99417.59
2018-03-24T02:50:33.105Z,99423.89
2018-03-24T02:52:59.867Z,99422.59
2018-03-24T02:55:26.528Z,99421.41
2018-03-24T02:57:53.247Z,99424.52
2018-03-24T03:00:20.010Z,99425.97
2018-03-24T03:02:46.620Z,99426.12
2018-03-24T03:05:13.365Z,99427.08
2018-03-24T03:07:40.104Z,99431.02
2018-03-24T03:10:06.917Z,99430.37
2018-03-24T03:12:33.661Z,99427.73
2018-03-24T03:15:01.149Z,99432.98
2018-03-24T03:17:27.895Z,99437.09
2018-03-24T03:19:54.698Z,99439.18
2018-03-24T03:22:21.479Z,99436.18
2018-03-24T03:24:48.265Z,99437.64
2018-03-24T03:27:16.960Z,99432.33
2018-03-24T03:29:43.648Z,99436.66
2018-03-24T03:32:11.329Z,99435.86
2018-03-24T03:34:38.757Z,99430.55
2018-03-24T03:37:05.480Z,99439.60
2018-03-24T03:39:32.308Z,99438.41
2018-03-24T03:41:59.015Z,99428.28
2018-03-24T03:44:25.766Z,99431.59
2018-03-24T03:46:52.466Z,99427.30
2018-03-24T03:49:19.361Z,99435.00
2018-03-24T03:51:46.082Z,99434.40
2018-03-24T03:54:12.885Z,99434.89
2018-03-24T03:56:39.559Z,99442.40
2018-03-24T03:59:06.274Z,99441.14
2018-03-24T04:01:33.028Z,99441.63
2018-03-24T04:03:59.663Z,99434.14
2018-03-24T04:06:26.395Z,99433.94
2018-03-24T04:08:53.061Z,99437.09
2018-03-24T04:11:19.816Z,99433.67
2018-03-24T04:13:46.476Z,99437.72
2018-03-24T04:16:13.879Z,99440.05
2018-03-24T04:18:40.558Z,99438.63
2018-03-24T04:21:07.281Z,99436.21
2018-03-24T04:23:34.516Z,99433.81
2018-03-24T04:26:01.955Z,99437.52
2018-03-24T04:28:28.603Z,99442.45
2018-03-24T04:30:55.323Z,99440.25
2018-03-24T04:33:22.022Z,99446.64
2018-03-24T04:35:49.433Z,99440.91
2018-03-24T04:38:16.179Z,99443.19
2018-03-24T04:40:42.876Z,99441.11
2018-03-24T04:43:09.550Z,99441.41
2018-03-24T04:45:36.307Z,99447.16
2018-03-24T04:48:03.090Z,99442.75
2018-03-24T04:50:29.725Z,99445.14
2018-03-24T04:52:56.431Z,99449.94
2018-03-24T04:55:23.116Z,99444.83
2018-03-24T04:57:50.818Z,99450.38
2018-03-24T05:00:17.524Z,99450.17
2018-03-24T05:02:44.274Z,99441.80
2018-03-24T05:05:10.984Z,99442.25
2018-03-24T05:07:37.676Z,99443.44
2018-03-24T05:10:04.313Z,99443.52
2018-03-24T05:12:32.561Z,99448.09
2018-03-24T05:14:59.272Z,99449.58
2018-03-24T05:17:25.903Z,99448.66
2018-03-24T05:19:52.554Z,99441.95
2018-03-24T05:22:20.254Z,99443.98
2018-03-24T05:24:46.944Z,99446.66
2018-03-24T05:27:13.644Z,99438.53
2018-03-24T05:29:40.345Z,99441.70
2018-03-24T05:32:07.074Z,99441.77
2018-03-24T05:34:33.756Z,99447.30
2018-03-24T05:37:00.539Z,99446.70
2018-03-24T05:39:27.234Z,99450.62
2018-03-24T05:41:54.704Z,99450.50
2018-03-24T05:44:22.134Z,99452.37
2018-03-24T05:46:48.833Z,99455.18
2018-03-24T05:49:15.556Z,99444.42
2018-03-24T05:51:42.219Z,99440.91
2018-03-24T05:54:08.959Z,99451.80
2018-03-24T05:56:35.691Z,99456.44
2018-03-24T05:59:02.465Z,99453.65
2018-03-24T06:01:29.172Z,99460.63
2018-03-24T06:03:55.904Z,99460.80
2018-03-24T06:06:22.646Z,99460.41
2018-03-24T06:08:49.278Z,99458.75
2018-03-24T06:11:15.981Z,99468.00
2018-03-24T06:13:42.677Z,99466.71
2018-03-24T06:16:10.361Z,99474.84
2018-03-24T06:18:37.814Z,99473.28
2018-03-24T06:21:04.470Z,99471.30
2018-03-24T06:23:31.210Z,99469.52
2018-03-24T06:25:57.939Z,99469.81
2018-03-24T06:28:24.702Z,99466.38
2018-03-24T06:30:57.959Z,99469.66
2018-03-24T06:33:24.703Z,99473.05
2018-03-24T06:35:51.381Z,99467.62
2018-03-24T06:38:18.027Z,99467.69
2018-03-24T06:40:44.642Z,99465.22
2018-03-24T06:43:11.508Z,99469.84
2018-03-24T06:45:38.152Z,99464.72
2018-03-24T06:48:04.769Z,99467.11
2018-03-24T06:50:32.148Z,99465.36
2018-03-24T06:52:59.536Z,99467.83
2018-03-24T06:55:26.207Z,99467.37
2018-03-24T06:57:52.970Z,99467.67
2018-03-24T07:00:19.663Z,99472.22
2018-03-24T07:02:46.318Z,99469.96
2018-03-24T07:05:12.984Z,99475.17
2018-03-24T07:07:39.680Z,99473.27
2018-03-24T07:10:06.393Z,99477.86
2018-03-24T07:12:33.048Z,99481.60
2018-03-24T07:14:59.816Z,99486.14
2018-03-24T07:17:26.550Z,99480.72
2018-03-24T07:19:53.895Z,99479.30
2018-03-24T07:22:20.586Z,99481.54
2018-03-24T07:24:47.859Z,99483.08
2018-03-24T07:27:14.518Z,99484.53
2018-03-24T07:29:41.239Z,99488.67
2018-03-24T07:32:07.846Z,99485.28
2018-03-24T07:34:34.493Z,99488.44
2018-03-24T07:37:02.157Z,99482.84
2018-03-24T07:39:28.923Z,99488.83
2018-03-24T07:41:55.614Z,99495.65
2018-03-24T07:44:22.412Z,99496.63
2018-03-24T07:46:49.197Z,99499.98
2018-03-24T07:49:16.716Z,99498.13
2018-03-24T07:51:43.468Z,99496.34
2018-03-24T07:54:10.256Z,99496.52
2018-03-24T07:56:36.970Z,99496.63
2018-03-24T07:59:03.790Z,99496.72
2018-03-24T08:01:30.580Z,99492.64
2018-03-24T08:03:57.285Z,99499.14
2018-03-24T08:06:24.113Z,99503.45
2018-03-24T08:08:50.818Z,99504.30
2018-03-24T08:11:17.678Z,99504.14
2018-03-24T08:13:44.480Z,99504.22
2018-03-24T08:16:11.244Z,99504.60
2018-03-24T08:18:38.093Z,99510.17
2018-03-24T08:21:05.806Z,99506.28
2018-03-24T08:23:33.037Z,99504.69
2018-03-24T08:25:59.817Z,99506.84
2018-03-24T08:28:26.680Z,99507.16
2018-03-24T08:30:53.540Z,99509.70
2018-03-24T08:33:20.330Z,99508.14
2018-03-24T08:35:47.165Z,99511.89
2018-03-24T08:38:14.683Z,99512.34
2018-03-24T08:40:41.525Z,99507.70
2018-03-24T08:43:08.376Z,99511.72
2018-03-24T08:45:35.173Z,99511.75
2018-03-24T08:48:02.884Z,99514.05
2018-03-24T08:50:29.752Z,99516.48
2018-03-24T08:52:56.560Z,99521.72
2018-03-24T08:55:23.384Z,99518.16
2018-03-24T08:57:50.265Z,99515.44
2018-03-24T09:00:17.163Z,99522.88
2018-03-24T09:02:44.705Z,99517.98
2018-03-24T09:05:13.343Z,99518.80
2018-03-24T09:07:40.163Z,99522.61
2018-03-24T09:10:06.997Z,99523.59
2018-03-24T09:12:34.597Z,99521.36
2018-03-24T09:15:01.421Z,99525.07
2018-03-24T09:17:28.213Z,99519.91
2018-03-24T09:19:54.998Z,99517.20
2018-03-24T09:22:21.841Z,99519.39
2018-03-24T09:24:49.675Z,99522.52
2018-03-24T09:27:16.508Z,99518.49
2018-03-24T09:29:43.306Z,99523.18
2018-03-24T09:32:10.059Z,99519.86
2018-03-24T09:34:37.661Z,99514.75
2018-03-24T09:37:05.455Z,99520.27
2018-03-24T09:39:32.526Z,99516.19
2018-03-24T09:41:59.534Z,99510.98
2018-03-24T09:44:27.204Z,99507.23
2018-03-24T09:46:54.171Z,99512.14
2018-03-24T09:49:21.119Z,99508.49
2018-03-24T09:51:50.361Z,99505.47
2018-03-24T09:54:17.462Z,99506.31
2018-03-24T09:56:44.298Z,99502.28
2018-03-24T09:59:12.218Z,99501.62
2018-03-24T10:01:39.068Z,99501.60
2018-03-24T10:04:06.081Z,99495.20
2018-03-24T10:06:34.018Z,99501.88
2018-03-24T10:09:01.107Z,99491.87
2018-03-24T10:11:27.966Z,99494.18
2018-03-24T10:13:54.742Z,99491.30
2018-03-24T10:16:21.480Z,99493.24
2018-03-24T10:18:48.339Z,99487.22
2018-03-24T10:24:26.429Z,99479.29
2018-03-24T10:26:53.349Z,99476.89
2018-03-24T10:29:20.205Z,99482.03
2018-03-24T10:31:47.963Z,99475.06
2018-03-24T10:34:14.889Z,99471.68
2018-03-24T10:36:41.788Z,99468.08
2018-03-24T10:39:09.341Z,99473.02
2018-03-24T10:41:36.214Z,99458.61
2018-03-24T10:44:03.073Z,99466.94
2018-03-24T10:46:29.867Z,99469.27
2018-03-24T10:48:56.904Z,99471.69
2018-03-24T10:51:23.917Z,99474.34
2018-03-24T10:53:51.683Z,99473.20
2018-03-24T10:56:19.734Z,99469.20
2018-03-24T10:58:46.625Z,99465.85
2018-03-24T11:01:14.117Z,99469.02
2018-03-24T11:03:41.558Z,99464.07
2018-03-24T11:06:08.385Z,99455.20
2018-03-24T11:08:36.194Z,99460.63
2018-03-24T11:11:04.283Z,99466.06
2018-03-24T11:13:31.944Z,99462.95
2018-03-24T11:15:58.813Z,99452.12
2018-03-24T11:18:26.700Z,99454.38
2018-03-24T11:20:54.157Z,99458.59
2018-03-24T11:23:36.574Z,99461.86
2018-03-24T11:26:03.523Z,99453.91
2018-03-24T11:28:30.310Z,99452.76
2018-03-24T11:30:57.299Z,99444.34
2018-03-24T11:33:25.152Z,99447.00
2018-03-24T11:35:52.350Z,99456.47
2018-03-24T11:38:19.347Z,99444.75
2018-03-24T11:40:46.687Z,99453.25
2018-03-24T11:43:14.136Z,99444.20
2018-03-24T11:45:41.138Z,99439.77
2018-03-24T11:48:07.949Z,99438.05
2018-03-24T11:50:34.819Z,99429.91
2018-03-24T11:53:02.311Z,99441.94
2018-03-24T11:55:29.380Z,99443.80
2018-03-24T11:57:56.205Z,99441.79
2018-03-24T12:00:24.313Z,99437.22
2018-03-24T12:02:51.257Z,99441.30
2018-03-24T12:05:20.323Z,99436.52
2018-03-24T12:07:47.208Z,99436.45
2018-03-24T12:10:14.590Z,99429.22
2018-03-24T12:12:41.407Z,99430.91
2018-03-24T12:15:10.513Z,99431.68
2018-03-24T12:17:37.652Z,99435.97
2018-03-24T12:20:04.550Z,99433.92
2018-03-24T12:22:32.399Z,99435.19
2018-03-24T12:24:59.201Z,99441.45
2018-03-24T12:27:26.857Z,99435.36
2018-03-24T12:29:55.059Z,99433.22
2018-03-24T12:32:23.368Z,99435.44
2018-03-24T12:34:51.393Z,99436.28
2018-03-24T12:37:19.035Z,99436.11
2018-03-24T12:39:46.116Z,99438.81
2018-03-24T12:42:13.103Z,99445.39
2018-03-24T12:44:39.988Z,99442.52
2018-03-24T12:47:07.000Z,99437.69
2018-03-24T12:49:34.074Z,99436.91
2018-03-24T12:52:01.564Z,99429.74
2018-03-24T12:54:28.532Z,99431.13
2018-03-24T12:56:56.680Z,99431.83
2018-03-24T12:59:25.146Z,99431.92
2018-03-24T13:01:53.351Z,99427.50
2018-03-24T13:04:24.415Z,99426.94
2018-03-24T13:06:53.268Z,99424.55
2018-03-24T13:09:21.239Z,99422.00
2018-03-24T13:11:48.650Z,99418.86
2018-03-24T13:14:18.559Z,99415.36
2018-03-24T13:16:47.098Z,99420.80
2018-03-24T13:19:14.206Z,99412.87
2018-03-24T13:21:41.764Z,99417.22
2018-03-24T13:24:08.575Z,99425.77
2018-03-24T13:26:35.621Z,99424.04
2018-03-24T13:29:02.583Z,99434.09
2018-03-24T13:31:29.899Z,99425.48
2018-03-24T13:33:59.101Z,99422.75
2018-03-24T13:36:25.946Z,99428.68
2018-03-24T13:38:53.929Z,99427.48
2018-03-24T13:41:22.107Z,99430.84
2018-03-24T13:43:49.015Z,99428.13
2018-03-24T13:46:16.180Z,99424.12
2018-03-24T13:48:46.769Z,99415.67
2018-03-24T13:51:13.644Z,99424.51
2018-03-24T13:53:46.705Z,99426.15
2018-03-24T13:56:13.703Z,99422.66
2018-03-24T13:58:40.770Z,99427.70
2018-03-24T14:01:23.772Z,99420.25
2018-03-24T14:03:53.167Z,99418.77
2018-03-24T14:06:21.840Z,99411.36
2018-03-24T14:08:53.735Z,99423.11
2018-03-24T14:41:56.925Z,99417.16
2018-03-24T15:53:14.484Z,99423.67
2018-03-24T19:25:40.431Z,99558.32
2018-03-24T21:26:02.811Z,99629.91
2018-03-24T21:28:45.411Z,99636.48
2018-03-24T21:31:14.083Z,99634.70
2018-03-24T21:33:42.723Z,99633.39
2018-03-24T21:36:11.161Z,99633.56
2018-03-24T21:38:41.659Z,99631.81
2018-03-24T21:43:54.349Z,99633.61
2018-03-24T21:46:23.816Z,99634.55
2018-03-24T21:48:53.142Z,99640.52
2018-03-24T21:51:22.759Z,99638.38
2018-03-24T21:53:51.369Z,99644.93
2018-03-24T21:56:25.020Z,99647.61
2018-03-24T21:58:53.663Z,99646.75
2018-03-24T22:01:22.245Z,99652.28
2018-03-24T22:03:51.385Z,99652.22
2018-03-24T22:06:22.732Z,99655.61
2018-03-24T22:08:51.256Z,99654.02
2018-03-24T22:11:20.655Z,99657.42
2018-03-24T22:13:52.235Z,99654.67
2018-03-24T22:16:21.418Z,99649.19
2018-03-24T22:18:50.813Z,99660.39
2018-03-24T22:21:20.997Z,99650.37
2018-03-24T22:23:50.349Z,99656.55
2018-03-24T22:26:19.422Z,99661.60
2018-03-24T22:28:49.657Z,99657.00
2018-03-24T22:31:20.294Z,99662.98
